createdAt,value
2022-11-19T00:00:00.776Z,11.40
2022-11-19T00:02:30.539Z,11.40
2022-11-19T00:04:58.231Z,11.30
2022-11-19T00:07:25.913Z,11.40
2022-11-19T00:09:55.722Z,11.30
2022-11-19T00:12:41.295Z,11.30
2022-11-19T00:15:08.655Z,11.20
2022-11-19T00:17:35.863Z,11.20
2022-11-19T00:20:08.532Z,11.10
2022-11-19T00:22:36.183Z,10.90
2022-11-19T00:25:04.502Z,11.00
2022-11-19T00:27:36.917Z,10.90
2022-11-19T00:30:20.010Z,10.90
2022-11-19T00:32:56.474Z,10.90
2022-11-19T00:35:23.680Z,10.80
2022-11-19T00:37:53.030Z,10.90
2022-11-19T00:40:20.207Z,10.90
2022-11-19T00:43:07.395Z,10.90
2022-11-19T00:45:34.612Z,10.90
2022-11-19T00:48:01.802Z,11.00
2022-11-19T00:50:29.028Z,11.00
2022-11-19T00:52:56.203Z,11.00
2022-11-19T00:55:23.431Z,11.00
2022-11-19T00:57:50.601Z,11.00
2022-11-19T01:00:17.986Z,11.10
2022-11-19T01:02:45.666Z,11.10
2022-11-19T01:05:19.183Z,11.00
2022-11-19T01:07:48.686Z,11.00
2022-11-19T01:10:18.385Z,11.10
2022-11-19T01:13:04.228Z,11.10
2022-11-19T01:15:31.227Z,11.10
2022-11-19T01:18:00.649Z,11.00
2022-11-19T01:20:30.244Z,10.90
2022-11-19T01:22:57.747Z,10.90
2022-11-19T01:25:24.775Z,10.80
2022-11-19T01:27:54.194Z,10.80
2022-11-19T01:30:21.275Z,10.70
2022-11-19T01:32:48.266Z,10.70
2022-11-19T01:35:18.163Z,10.70
2022-11-19T01:37:45.263Z,10.70
2022-11-19T01:40:14.979Z,10.70
2022-11-19T01:42:50.592Z,10.70
2022-11-19T01:45:38.929Z,10.60
2022-11-19T01:48:26.688Z,10.70
2022-11-19T01:51:00.384Z,10.70
2022-11-19T01:53:37.242Z,10.70
2022-11-19T01:56:05.913Z,10.80
2022-11-19T01:58:40.991Z,10.80
2022-11-19T02:01:08.996Z,10.80
2022-11-19T02:03:40.095Z,10.70
2022-11-19T02:06:07.807Z,10.70
2022-11-19T02:08:40.649Z,10.30
2022-11-19T02:11:17.875Z,10.20
2022-11-19T02:14:03.462Z,10.40
2022-11-19T02:16:52.657Z,10.50
2022-11-19T02:19:38.607Z,10.70
2022-11-19T02:22:11.063Z,10.80
2022-11-19T02:24:38.062Z,10.80
2022-11-19T02:27:08.145Z,10.80
2022-11-19T02:29:53.923Z,10.80
2022-11-19T02:32:24.283Z,10.80
2022-11-19T02:34:53.787Z,10.80
2022-11-19T02:37:25.122Z,10.70
2022-11-19T02:40:00.789Z,10.70
2022-11-19T02:42:30.790Z,10.70
2022-11-19T02:45:05.331Z,10.60
2022-11-19T02:47:36.793Z,10.60
2022-11-19T02:50:08.744Z,10.70
2022-11-19T02:52:40.702Z,10.60
2022-11-19T02:55:10.542Z,10.70
2022-11-19T02:57:40.706Z,10.70
2022-11-19T03:00:26.730Z,10.70
2022-11-19T03:03:14.809Z,10.80
2022-11-19T03:05:44.600Z,10.80
2022-11-19T03:08:12.041Z,10.80
2022-11-19T03:10:59.312Z,10.80
2022-11-19T03:13:49.126Z,10.70
2022-11-19T03:16:38.967Z,10.80
2022-11-19T03:19:10.388Z,10.70
2022-11-19T03:21:47.650Z,10.70
2022-11-19T03:24:18.740Z,10.70
2022-11-19T03:26:48.898Z,10.70
2022-11-19T03:29:16.115Z,10.70
2022-11-19T03:31:50.461Z,10.70
2022-11-19T03:34:20.060Z,10.70
2022-11-19T03:36:49.846Z,10.70
2022-11-19T03:39:22.722Z,10.70
2022-11-19T03:41:51.570Z,10.80
2022-11-19T03:44:21.795Z,10.80
2022-11-19T03:46:53.617Z,10.80
2022-11-19T03:49:24.560Z,10.80
2022-11-19T03:51:58.563Z,10.90
2022-11-19T03:54:28.031Z,10.80
2022-11-19T03:56:55.787Z,10.80
2022-11-19T03:59:28.184Z,10.90
2022-11-19T04:02:00.477Z,11.00
2022-11-19T04:04:36.869Z,10.90
2022-11-19T04:07:11.373Z,11.00
2022-11-19T04:09:39.207Z,11.00
2022-11-19T04:12:06.840Z,11.00
2022-11-19T04:14:34.060Z,11.00
2022-11-19T04:17:01.152Z,11.00
2022-11-19T04:19:28.145Z,11.10
2022-11-19T04:21:55.194Z,11.10
2022-11-19T04:24:22.241Z,11.20
2022-11-19T04:26:49.258Z,11.20
2022-11-19T04:29:19.551Z,11.20
2022-11-19T04:31:47.230Z,11.20
2022-11-19T04:34:14.306Z,11.10
2022-11-19T04:36:42.230Z,11.10
2022-11-19T04:39:10.389Z,11.10
2022-11-19T04:41:37.844Z,11.10
2022-11-19T04:44:05.140Z,11.20
2022-11-19T04:46:32.885Z,11.20
2022-11-19T04:48:59.887Z,11.20
2022-11-19T04:51:26.884Z,11.30
2022-11-19T04:53:56.248Z,11.30
2022-11-19T04:56:23.309Z,11.30
2022-11-19T04:58:52.483Z,11.30
2022-11-19T05:01:20.666Z,11.40
2022-11-19T05:03:47.974Z,11.30
2022-11-19T05:06:14.999Z,11.30
2022-11-19T05:08:42.037Z,11.30
2022-11-19T05:11:09.241Z,11.30
2022-11-19T05:13:36.366Z,11.30
2022-11-19T05:16:05.957Z,11.40
2022-11-19T05:18:33.428Z,11.40
2022-11-19T05:21:00.872Z,11.40
2022-11-19T05:23:30.645Z,11.40
2022-11-19T05:26:00.633Z,11.30
2022-11-19T05:28:38.474Z,11.20
2022-11-19T05:31:07.650Z,11.10
2022-11-19T05:33:34.916Z,11.20
2022-11-19T05:36:02.916Z,11.20
2022-11-19T05:38:30.563Z,11.20
2022-11-19T05:40:57.550Z,11.10
2022-11-19T05:43:24.591Z,11.00
2022-11-19T05:45:52.105Z,10.80
2022-11-19T05:48:19.129Z,10.50
2022-11-19T05:50:46.616Z,10.20
2022-11-19T05:53:13.657Z,9.90
2022-11-19T05:55:43.562Z,9.60
2022-11-19T05:58:11.031Z,9.40
2022-11-19T06:00:38.046Z,9.20
2022-11-19T06:03:05.705Z,9.10
2022-11-19T06:05:40.490Z,9.00
2022-11-19T06:08:10.518Z,8.80
2022-11-19T06:10:39.946Z,8.70
2022-11-19T06:13:11.889Z,8.70
2022-11-19T06:15:41.437Z,8.70
2022-11-19T06:18:08.887Z,8.60
2022-11-19T06:20:36.325Z,8.60
2022-11-19T06:23:03.392Z,8.50
2022-11-19T06:25:30.414Z,8.40
2022-11-19T06:27:57.463Z,8.30
2022-11-19T06:30:24.496Z,8.30
2022-11-19T06:32:54.080Z,8.20
2022-11-19T06:35:21.082Z,8.10
2022-11-19T06:37:48.077Z,8.10
2022-11-19T06:40:15.133Z,8.00
2022-11-19T06:42:42.185Z,8.00
2022-11-19T06:45:10.900Z,7.80
2022-11-19T06:47:38.612Z,7.80
2022-11-19T06:50:06.753Z,7.70
2022-11-19T06:52:33.747Z,7.60
2022-11-19T06:55:01.301Z,7.60
2022-11-19T06:57:28.289Z,7.60
2022-11-19T06:59:55.313Z,7.50
2022-11-19T07:02:22.321Z,7.50
2022-11-19T07:04:49.882Z,7.40
2022-11-19T07:07:19.458Z,7.40
2022-11-19T07:09:47.027Z,7.40
2022-11-19T07:12:16.451Z,7.40
2022-11-19T07:14:45.626Z,7.40
2022-11-19T07:17:13.109Z,7.40
2022-11-19T07:19:40.134Z,7.30
2022-11-19T07:22:09.687Z,7.40
2022-11-19T07:24:42.016Z,7.30
2022-11-19T07:27:11.420Z,7.30
2022-11-19T07:29:38.826Z,7.20
2022-11-19T07:32:05.901Z,7.20
2022-11-19T07:34:35.137Z,7.20
2022-11-19T07:37:02.226Z,7.10
2022-11-19T07:39:29.683Z,7.10
2022-11-19T07:42:18.099Z,7.00
2022-11-19T07:44:45.610Z,7.00
2022-11-19T07:47:15.596Z,7.10
2022-11-19T07:49:42.639Z,7.10
2022-11-19T07:52:09.670Z,7.00
2022-11-19T07:54:36.729Z,7.00
2022-11-19T07:57:03.794Z,6.80
2022-11-19T07:59:31.272Z,6.90
2022-11-19T08:02:03.662Z,6.90
2022-11-19T08:04:31.228Z,6.90
2022-11-19T08:06:58.261Z,7.00
2022-11-19T08:09:27.587Z,6.90
2022-11-19T08:11:57.418Z,6.90
2022-11-19T08:14:24.438Z,6.90
2022-11-19T08:17:10.160Z,6.80
2022-11-19T08:19:37.621Z,6.90
2022-11-19T08:22:09.527Z,7.00
2022-11-19T08:24:37.008Z,7.10
2022-11-19T08:27:08.884Z,7.30
2022-11-19T08:29:38.048Z,7.10
2022-11-19T08:32:05.092Z,7.10
2022-11-19T08:34:32.291Z,7.10
2022-11-19T08:36:59.290Z,7.10
2022-11-19T08:39:26.773Z,7.00
2022-11-19T08:42:12.552Z,6.90
2022-11-19T08:44:39.589Z,6.80
2022-11-19T08:47:06.648Z,6.80
2022-11-19T08:49:33.700Z,6.60
2022-11-19T08:52:03.493Z,6.60
2022-11-19T08:54:30.490Z,6.60
2022-11-19T08:57:00.543Z,6.50
2022-11-19T08:59:27.533Z,6.50
2022-11-19T09:01:55.028Z,6.50
2022-11-19T09:04:24.221Z,6.70
2022-11-19T09:06:51.406Z,6.70
2022-11-19T09:09:18.935Z,6.70
2022-11-19T09:11:46.418Z,6.70
2022-11-19T09:14:13.445Z,6.80
2022-11-19T09:16:40.427Z,6.80
2022-11-19T09:19:07.927Z,6.90
2022-11-19T09:21:37.566Z,6.90
2022-11-19T09:24:04.814Z,6.90
2022-11-19T09:26:34.290Z,7.00
2022-11-19T09:29:01.347Z,7.00
2022-11-19T09:31:28.855Z,7.10
2022-11-19T09:33:55.953Z,7.20
2022-11-19T09:36:22.971Z,7.30
2022-11-19T09:38:49.980Z,7.40
2022-11-19T09:41:38.683Z,7.50
2022-11-19T09:44:06.129Z,7.60
2022-11-19T09:46:33.171Z,7.70
2022-11-19T09:49:05.560Z,7.70
2022-11-19T09:51:34.134Z,7.80
2022-11-19T09:54:05.788Z,7.80
2022-11-19T09:56:40.000Z,7.90
2022-11-19T09:59:10.901Z,7.80
2022-11-19T10:01:37.995Z,7.70
2022-11-19T10:04:05.013Z,7.70
2022-11-19T10:06:43.431Z,7.60
2022-11-19T10:09:27.209Z,7.60
2022-11-19T10:11:54.763Z,7.60
2022-11-19T10:14:37.317Z,7.40
2022-11-19T10:17:24.125Z,7.30
2022-11-19T10:19:59.341Z,7.20
2022-11-19T10:22:36.376Z,7.20
2022-11-19T10:25:03.541Z,7.20
2022-11-19T10:27:37.021Z,7.20
2022-11-19T10:30:06.848Z,7.10
2022-11-19T10:32:41.357Z,7.00
2022-11-19T10:35:17.521Z,6.90
2022-11-19T10:37:58.243Z,6.90
2022-11-19T10:40:28.809Z,7.00
2022-11-19T10:43:06.724Z,7.00
2022-11-19T10:45:33.727Z,7.10
2022-11-19T10:48:20.809Z,7.20
2022-11-19T10:50:47.830Z,7.40
2022-11-19T10:53:21.743Z,7.40
2022-11-19T10:55:54.548Z,7.40
2022-11-19T10:58:29.463Z,7.30
2022-11-19T11:01:01.163Z,7.10
2022-11-19T11:03:31.528Z,7.00
2022-11-19T11:06:05.308Z,7.00
2022-11-19T11:08:33.365Z,6.90
2022-11-19T11:11:01.436Z,6.70
2022-11-19T11:13:52.928Z,6.70
2022-11-19T11:16:42.524Z,6.60
2022-11-19T11:19:14.738Z,6.60
2022-11-19T11:21:44.901Z,6.60
2022-11-19T11:24:13.051Z,6.70
2022-11-19T11:26:41.050Z,6.70
2022-11-19T11:29:13.938Z,6.60
2022-11-19T11:31:42.538Z,6.40
2022-11-19T11:34:28.248Z,6.40
2022-11-19T11:36:55.964Z,6.20
2022-11-19T11:39:37.340Z,6.10
2022-11-19T11:42:06.645Z,6.10
2022-11-19T11:44:35.637Z,6.20
2022-11-19T11:47:06.131Z,6.20
2022-11-19T11:49:37.706Z,6.10
2022-11-19T11:52:04.738Z,6.20
2022-11-19T11:54:32.226Z,6.20
2022-11-19T11:57:09.046Z,6.30
2022-11-19T11:59:36.583Z,6.50
2022-11-19T12:02:05.626Z,6.60
2022-11-19T12:04:35.928Z,6.60
2022-11-19T12:07:21.289Z,6.60
2022-11-19T12:09:51.877Z,6.60
2022-11-19T12:12:40.291Z,6.50
2022-11-19T12:15:19.053Z,6.40
2022-11-19T12:18:06.273Z,6.40
2022-11-19T12:20:36.240Z,6.40
2022-11-19T12:23:10.205Z,6.50
2022-11-19T12:25:40.178Z,6.50
2022-11-19T12:28:19.461Z,6.50
2022-11-19T12:30:55.703Z,6.40
2022-11-19T12:33:42.139Z,6.30
2022-11-19T12:36:25.330Z,6.30
2022-11-19T12:38:58.378Z,6.30
2022-11-19T12:41:31.908Z,6.10
2022-11-19T12:44:00.899Z,6.10
2022-11-19T12:46:46.786Z,6.20
2022-11-19T12:49:19.189Z,6.10
2022-11-19T12:51:46.442Z,6.10
2022-11-19T12:54:35.258Z,6.20
2022-11-19T12:57:20.689Z,6.20
2022-11-19T13:00:06.234Z,6.20
2022-11-19T13:02:41.131Z,6.20
2022-11-19T13:05:08.255Z,6.20
2022-11-19T13:07:43.226Z,6.40
2022-11-19T13:10:39.822Z,6.40
2022-11-19T13:13:08.541Z,6.30
2022-11-19T13:15:38.513Z,6.40
2022-11-19T13:18:10.312Z,6.50
2022-11-19T13:20:43.944Z,6.40
2022-11-19T13:23:31.714Z,6.50
2022-11-19T13:26:00.762Z,6.60
2022-11-19T13:28:34.541Z,6.70
2022-11-19T13:31:05.867Z,6.50
2022-11-19T13:33:39.088Z,6.40
2022-11-19T13:36:17.906Z,6.40
2022-11-19T13:38:49.884Z,6.40
2022-11-19T13:41:31.532Z,6.20
2022-11-19T13:44:17.425Z,6.10
2022-11-19T13:46:47.268Z,6.10
2022-11-19T13:49:29.096Z,6.30
2022-11-19T13:52:18.071Z,6.40
2022-11-19T13:54:48.801Z,6.50
2022-11-19T13:57:28.019Z,6.50
2022-11-19T14:00:27.626Z,6.60
2022-11-19T14:03:13.214Z,6.60
2022-11-19T14:05:40.274Z,6.40
2022-11-19T14:08:09.669Z,6.50
2022-11-19T14:10:37.908Z,6.40
2022-11-19T14:13:17.534Z,6.40
2022-11-19T14:16:12.306Z,6.30
2022-11-19T14:18:59.787Z,6.30
2022-11-19T14:21:45.472Z,6.20
2022-11-19T14:24:46.384Z,6.20
2022-11-19T14:27:17.299Z,6.10
2022-11-19T14:29:47.735Z,6.10
2022-11-19T14:32:14.746Z,6.10
2022-11-19T14:34:43.984Z,6.20
2022-11-19T14:37:13.413Z,6.20
2022-11-19T14:39:42.596Z,6.20
2022-11-19T14:42:23.221Z,6.10
2022-11-19T14:45:02.922Z,5.90
2022-11-19T14:47:33.876Z,5.90
2022-11-19T14:50:02.565Z,6.00
2022-11-19T14:52:33.961Z,6.00
2022-11-19T14:55:03.540Z,6.00
2022-11-19T14:57:42.052Z,5.90
2022-11-19T15:00:15.594Z,5.90
2022-11-19T15:02:48.796Z,6.00
2022-11-19T15:05:23.325Z,6.10
2022-11-19T15:07:56.169Z,6.30
2022-11-19T15:10:27.276Z,6.10
2022-11-19T15:13:16.127Z,6.20
2022-11-19T15:15:46.403Z,6.20
2022-11-19T15:18:20.376Z,6.30
2022-11-19T15:21:13.760Z,6.30
2022-11-19T15:23:46.862Z,6.40
2022-11-19T15:26:32.956Z,6.30
2022-11-19T15:29:00.432Z,6.30
2022-11-19T15:31:32.891Z,6.20
2022-11-19T15:34:14.976Z,6.20
2022-11-19T15:36:45.195Z,6.30
2022-11-19T15:39:16.766Z,6.40
2022-11-19T15:42:00.567Z,6.40
2022-11-19T15:44:29.984Z,6.30
2022-11-19T15:46:59.445Z,6.20
2022-11-19T15:49:27.842Z,6.20
2022-11-19T15:52:04.572Z,6.10
2022-11-19T15:54:35.575Z,6.20
2022-11-19T15:57:24.145Z,6.10
2022-11-19T16:00:01.686Z,6.00
2022-11-19T16:02:40.883Z,6.00
2022-11-19T16:05:18.070Z,5.90
2022-11-19T16:07:46.285Z,5.90
2022-11-19T16:10:15.812Z,5.90
2022-11-19T16:13:11.211Z,5.80
2022-11-19T16:16:10.147Z,5.70
2022-11-19T16:18:50.795Z,5.70
2022-11-19T16:21:20.711Z,5.70
2022-11-19T16:24:08.920Z,5.60
2022-11-19T16:26:37.431Z,5.60
2022-11-19T16:29:04.707Z,5.50
2022-11-19T16:31:31.915Z,5.60
2022-11-19T16:33:59.790Z,5.70
2022-11-19T16:36:31.975Z,5.80
2022-11-19T16:39:01.480Z,5.80
2022-11-19T16:41:46.925Z,6.00
2022-11-19T16:44:16.801Z,5.90
2022-11-19T16:46:44.493Z,6.00
2022-11-19T16:49:28.998Z,6.00
2022-11-19T16:51:59.070Z,6.10
2022-11-19T16:54:45.603Z,6.10
2022-11-19T16:57:17.067Z,6.00
2022-11-19T16:59:49.864Z,6.00
2022-11-19T17:02:19.463Z,6.00
2022-11-19T17:04:53.671Z,6.00
2022-11-19T17:07:27.829Z,6.00
2022-11-19T17:10:13.149Z,6.00
2022-11-19T17:12:50.439Z,6.00
2022-11-19T17:15:37.029Z,6.00
2022-11-19T17:18:14.941Z,5.80
2022-11-19T17:20:45.160Z,5.70
2022-11-19T17:23:17.170Z,5.70
2022-11-19T17:25:45.230Z,5.60
2022-11-19T17:28:17.490Z,5.70
2022-11-19T17:30:49.790Z,5.70
2022-11-19T17:33:22.392Z,5.70
2022-11-19T17:35:49.406Z,5.80
2022-11-19T17:38:20.538Z,5.80
2022-11-19T17:40:52.457Z,5.60
2022-11-19T17:43:53.770Z,5.50
2022-11-19T17:46:21.520Z,5.50
2022-11-19T17:48:49.321Z,5.70
2022-11-19T17:51:18.128Z,5.80
2022-11-19T17:53:47.835Z,5.90
2022-11-19T17:56:19.780Z,5.90
2022-11-19T17:58:47.804Z,5.90
2022-11-19T18:01:15.527Z,5.80
2022-11-19T18:03:45.650Z,5.70
2022-11-19T18:06:13.514Z,5.50
2022-11-19T18:08:42.147Z,5.50
2022-11-19T18:11:21.218Z,5.50
2022-11-19T18:13:50.603Z,5.50
2022-11-19T18:16:19.015Z,5.60
2022-11-19T18:18:46.276Z,5.70
2022-11-19T18:21:13.995Z,5.60
2022-11-19T18:23:41.704Z,5.50
2022-11-19T18:26:12.496Z,5.40
2022-11-19T18:28:42.544Z,5.50
2022-11-19T18:31:14.600Z,5.40
2022-11-19T18:33:41.878Z,5.50
2022-11-19T18:36:09.180Z,5.40
2022-11-19T18:38:36.675Z,5.10
2022-11-19T18:41:04.178Z,5.20
2022-11-19T18:43:52.608Z,5.30
2022-11-19T18:46:19.623Z,5.40
2022-11-19T18:48:46.794Z,5.50
2022-11-19T18:51:13.918Z,5.70
2022-11-19T18:53:40.985Z,5.80
2022-11-19T18:56:13.059Z,5.90
2022-11-19T18:58:40.081Z,5.90
2022-11-19T19:01:09.366Z,5.90
2022-11-19T19:03:39.148Z,5.80
2022-11-19T19:06:07.690Z,5.90
2022-11-19T19:08:37.443Z,5.90
2022-11-19T19:11:24.180Z,6.00
2022-11-19T19:13:51.223Z,6.00
2022-11-19T19:16:23.203Z,6.10
2022-11-19T19:18:52.876Z,5.90
2022-11-19T19:21:22.843Z,5.70
2022-11-19T19:23:52.513Z,5.70
2022-11-19T19:26:19.926Z,5.80
2022-11-19T19:28:51.587Z,6.00
2022-11-19T19:31:19.161Z,6.00
2022-11-19T19:33:46.349Z,6.10
2022-11-19T19:36:14.448Z,6.10
2022-11-19T19:38:44.293Z,6.10
2022-11-19T19:41:13.121Z,6.10
2022-11-19T19:43:40.840Z,6.00
2022-11-19T19:46:16.272Z,6.00
2022-11-19T19:48:46.458Z,5.90
2022-11-19T19:51:14.630Z,5.90
2022-11-19T19:53:42.611Z,5.90
2022-11-19T19:56:11.316Z,5.90
2022-11-19T19:58:44.460Z,6.00
2022-11-19T20:01:11.423Z,6.10
2022-11-19T20:03:38.429Z,6.20
2022-11-19T20:06:06.514Z,6.20
2022-11-19T20:08:36.437Z,6.20
2022-11-19T20:11:05.137Z,6.30
2022-11-19T20:13:34.394Z,6.40
2022-11-19T20:16:05.768Z,6.40
2022-11-19T20:18:33.730Z,6.40
2022-11-19T20:21:01.442Z,6.50
2022-11-19T20:23:28.696Z,6.50
2022-11-19T20:25:57.048Z,6.60
2022-11-19T20:28:24.744Z,6.60
2022-11-19T20:30:51.935Z,6.70
2022-11-19T20:33:21.387Z,6.80
2022-11-19T20:35:52.600Z,6.90
2022-11-19T20:38:20.526Z,6.90
2022-11-19T20:40:54.787Z,6.90
2022-11-19T20:43:45.831Z,6.80
2022-11-19T20:46:20.022Z,6.70
2022-11-19T20:48:48.339Z,6.60
2022-11-19T20:51:20.001Z,6.60
2022-11-19T20:53:47.105Z,6.70
2022-11-19T20:56:16.255Z,6.80
2022-11-19T20:58:44.068Z,6.90
2022-11-19T21:01:11.641Z,7.00
2022-11-19T21:03:40.871Z,6.80
2022-11-19T21:06:08.163Z,6.70
2022-11-19T21:08:36.282Z,6.70
2022-11-19T21:11:04.632Z,6.70
2022-11-19T21:13:32.540Z,6.70
2022-11-19T21:15:59.745Z,6.70
2022-11-19T21:18:27.475Z,6.60
2022-11-19T21:21:00.410Z,6.50
2022-11-19T21:23:27.736Z,6.50
2022-11-19T21:26:00.593Z,6.40
2022-11-19T21:28:27.711Z,6.40
2022-11-19T21:30:54.796Z,6.40
2022-11-19T21:33:21.866Z,6.40
2022-11-19T21:35:51.123Z,6.50
2022-11-19T21:38:18.133Z,6.50
2022-11-19T21:40:45.199Z,6.50
2022-11-19T21:43:12.188Z,6.50
2022-11-19T21:45:39.927Z,6.60
2022-11-19T21:48:09.311Z,6.60
2022-11-19T21:50:38.287Z,6.70
2022-11-19T21:53:06.023Z,6.60
2022-11-19T21:55:33.323Z,6.70
2022-11-19T21:58:06.309Z,6.70
2022-11-19T22:00:33.667Z,6.80
2022-11-19T22:03:01.065Z,6.80
2022-11-19T22:05:28.129Z,6.60
2022-11-19T22:07:55.177Z,6.70
2022-11-19T22:10:22.223Z,6.70
2022-11-19T22:12:52.391Z,6.70
2022-11-19T22:15:22.305Z,6.70
2022-11-19T22:17:52.552Z,6.60
2022-11-19T22:20:20.084Z,6.60
2022-11-19T22:22:47.284Z,6.70
2022-11-19T22:25:14.980Z,6.80
2022-11-19T22:27:42.219Z,6.80
2022-11-19T22:30:10.527Z,6.80
2022-11-19T22:32:37.601Z,6.80
2022-11-19T22:35:08.569Z,6.70
2022-11-19T22:37:35.621Z,6.70
2022-11-19T22:40:02.712Z,6.60
2022-11-19T22:42:29.723Z,6.60
2022-11-19T22:44:57.242Z,6.50
2022-11-19T22:47:24.692Z,6.50
2022-11-19T22:49:52.211Z,6.60
2022-11-19T22:52:22.265Z,6.60
2022-11-19T22:54:49.260Z,6.60
2022-11-19T22:57:16.278Z,6.50
2022-11-19T22:59:43.759Z,6.50
2022-11-19T23:02:11.264Z,6.40
2022-11-19T23:04:38.907Z,6.30
2022-11-19T23:07:06.484Z,6.40
2022-11-19T23:09:33.549Z,6.30
2022-11-19T23:12:21.974Z,6.40
2022-11-19T23:14:51.236Z,6.50
2022-11-19T23:17:18.265Z,6.50
2022-11-19T23:19:45.264Z,6.40
2022-11-19T23:22:12.311Z,6.30
2022-11-19T23:24:39.317Z,6.40
2022-11-19T23:27:06.771Z,6.40
2022-11-19T23:29:33.922Z,6.50
2022-11-19T23:32:01.431Z,6.50
2022-11-19T23:34:28.905Z,6.50
2022-11-19T23:36:56.325Z,6.60
2022-11-19T23:39:23.600Z,6.60
2022-11-19T23:41:53.274Z,6.70
2022-11-19T23:44:20.761Z,6.60
2022-11-19T23:46:50.149Z,6.70
2022-11-19T23:49:17.209Z,6.70
2022-11-19T23:51:44.294Z,6.70
2022-11-19T23:54:12.450Z,6.70
2022-11-19T23:56:39.587Z,6.70
2022-11-19T23:59:09.117Z,6.70
